sensor_id;sensor_type;location;lat;lon;timestamp;P1;durP1;ratioP1;P2;durP2;ratioP2
47481;SDS011;33219;47.410;9.730;2022-10-28T00:01:09;10.50;;;3.15;;
47481;SDS011;33219;47.410;9.730;2022-10-28T00:03:40;8.48;;;3.30;;
47481;SDS011;33219;47.410;9.730;2022-10-28T00:06:10;9.18;;;3.45;;
47481;SDS011;33219;47.410;9.730;2022-10-28T00:08:39;7.28;;;3.17;;
47481;SDS011;33219;47.410;9.730;2022-10-28T00:11:08;7.58;;;2.80;;
47481;SDS011;33219;47.410;9.730;2022-10-28T00:13:41;5.92;;;2.55;;
47481;SDS011;33219;47.410;9.730;2022-10-28T00:16:17;12.68;;;2.60;;
47481;SDS011;33219;47.410;9.730;2022-10-28T00:18:47;8.40;;;2.92;;
47481;SDS011;33219;47.410;9.730;2022-10-28T00:21:18;5.42;;;2.60;;
47481;SDS011;33219;47.410;9.730;2022-10-28T00:23:47;6.12;;;2.70;;
47481;SDS011;33219;47.410;9.730;2022-10-28T00:26:16;7.95;;;2.65;;
47481;SDS011;33219;47.410;9.730;2022-10-28T00:28:50;8.45;;;2.75;;
47481;SDS011;33219;47.410;9.730;2022-10-28T00:31:19;5.85;;;2.55;;
47481;SDS011;33219;47.410;9.730;2022-10-28T00:33:48;10.60;;;3.08;;
47481;SDS011;33219;47.410;9.730;2022-10-28T00:36:20;5.50;;;2.40;;
47481;SDS011;33219;47.410;9.730;2022-10-28T00:38:50;8.65;;;3.30;;
47481;SDS011;33219;47.410;9.730;2022-10-28T00:41:25;5.87;;;2.70;;
47481;SDS011;33219;47.410;9.730;2022-10-28T00:44:02;6.50;;;2.20;;
47481;SDS011;33219;47.410;9.730;2022-10-28T00:46:48;5.87;;;2.20;;
47481;SDS011;33219;47.410;9.730;2022-10-28T00:49:24;8.90;;;2.70;;
47481;SDS011;33219;47.410;9.730;2022-10-28T00:51:50;11.08;;;3.47;;
47481;SDS011;33219;47.410;9.730;2022-10-28T00:54:19;5.67;;;2.60;;
47481;SDS011;33219;47.410;9.730;2022-10-28T00:56:50;5.67;;;2.22;;
47481;SDS011;33219;47.410;9.730;2022-10-28T00:59:26;5.87;;;2.35;;
47481;SDS011;33219;47.410;9.730;2022-10-28T01:01:55;8.05;;;2.45;;
47481;SDS011;33219;47.410;9.730;2022-10-28T01:04:23;6.78;;;2.85;;
47481;SDS011;33219;47.410;9.730;2022-10-28T01:06:51;7.37;;;2.40;;
47481;SDS011;33219;47.410;9.730;2022-10-28T01:09:20;7.85;;;2.60;;
47481;SDS011;33219;47.410;9.730;2022-10-28T01:14:58;4.65;;;1.92;;
47481;SDS011;33219;47.410;9.730;2022-10-28T01:17:57;6.62;;;2.20;;
47481;SDS011;33219;47.410;9.730;2022-10-28T01:20:39;6.97;;;2.33;;
47481;SDS011;33219;47.410;9.730;2022-10-28T01:23:19;6.28;;;2.30;;
47481;SDS011;33219;47.410;9.730;2022-10-28T01:25:57;8.25;;;2.30;;
47481;SDS011;33219;47.410;9.730;2022-10-28T01:39:45;6.58;;;1.90;;
47481;SDS011;33219;47.410;9.730;2022-10-28T01:47:32;6.30;;;2.35;;
47481;SDS011;33219;47.410;9.730;2022-10-28T01:50:04;6.55;;;2.17;;
47481;SDS011;33219;47.410;9.730;2022-10-28T01:52:34;5.30;;;2.35;;
47481;SDS011;33219;47.410;9.730;2022-10-28T01:55:13;5.33;;;2.30;;
47481;SDS011;33219;47.410;9.730;2022-10-28T01:57:38;5.00;;;2.10;;
47481;SDS011;33219;47.410;9.730;2022-10-28T02:00:07;8.20;;;2.40;;
47481;SDS011;33219;47.410;9.730;2022-10-28T02:02:36;6.30;;;2.15;;
47481;SDS011;33219;47.410;9.730;2022-10-28T02:08:15;6.72;;;2.35;;
47481;SDS011;33219;47.410;9.730;2022-10-28T02:16:17;7.85;;;2.30;;
47481;SDS011;33219;47.410;9.730;2022-10-28T02:21:18;4.67;;;2.15;;
47481;SDS011;33219;47.410;9.730;2022-10-28T02:23:58;5.42;;;2.25;;
47481;SDS011;33219;47.410;9.730;2022-10-28T02:26:34;7.75;;;2.30;;
47481;SDS011;33219;47.410;9.730;2022-10-28T02:29:13;7.92;;;2.25;;
47481;SDS011;33219;47.410;9.730;2022-10-28T02:31:50;8.50;;;2.40;;
47481;SDS011;33219;47.410;9.730;2022-10-28T02:34:24;6.53;;;2.12;;
47481;SDS011;33219;47.410;9.730;2022-10-28T02:36:53;6.33;;;2.17;;
47481;SDS011;33219;47.410;9.730;2022-10-28T02:39:25;5.92;;;3.15;;
47481;SDS011;33219;47.410;9.730;2022-10-28T02:41:54;7.53;;;2.77;;
47481;SDS011;33219;47.410;9.730;2022-10-28T02:44:33;7.10;;;2.20;;
47481;SDS011;33219;47.410;9.730;2022-10-28T02:47:05;5.90;;;2.60;;
47481;SDS011;33219;47.410;9.730;2022-10-28T02:49:34;8.50;;;1.80;;
47481;SDS011;33219;47.410;9.730;2022-10-28T02:52:05;8.40;;;2.33;;
47481;SDS011;33219;47.410;9.730;2022-10-28T02:57:07;5.22;;;2.40;;
47481;SDS011;33219;47.410;9.730;2022-10-28T02:59:40;6.55;;;2.80;;
47481;SDS011;33219;47.410;9.730;2022-10-28T03:02:08;5.90;;;2.22;;
47481;SDS011;33219;47.410;9.730;2022-10-28T03:04:35;5.83;;;2.50;;
47481;SDS011;33219;47.410;9.730;2022-10-28T03:07:03;7.97;;;2.92;;
47481;SDS011;33219;47.410;9.730;2022-10-28T03:09:30;5.53;;;2.42;;
47481;SDS011;33219;47.410;9.730;2022-10-28T03:11:58;6.62;;;2.35;;
47481;SDS011;33219;47.410;9.730;2022-10-28T03:14:25;6.70;;;2.92;;
47481;SDS011;33219;47.410;9.730;2022-10-28T03:16:53;6.15;;;2.62;;
47481;SDS011;33219;47.410;9.730;2022-10-28T03:19:20;9.18;;;2.58;;
47481;SDS011;33219;47.410;9.730;2022-10-28T03:21:48;5.03;;;2.10;;
47481;SDS011;33219;47.410;9.730;2022-10-28T03:24:16;6.65;;;2.55;;
47481;SDS011;33219;47.410;9.730;2022-10-28T03:26:43;7.80;;;2.47;;
47481;SDS011;33219;47.410;9.730;2022-10-28T03:29:11;5.50;;;2.60;;
47481;SDS011;33219;47.410;9.730;2022-10-28T03:31:38;7.05;;;2.83;;
47481;SDS011;33219;47.410;9.730;2022-10-28T03:34:06;6.22;;;2.60;;
47481;SDS011;33219;47.410;9.730;2022-10-28T03:36:34;6.37;;;2.55;;
47481;SDS011;33219;47.410;9.730;2022-10-28T03:39:02;6.40;;;2.75;;
47481;SDS011;33219;47.410;9.730;2022-10-28T03:41:29;6.50;;;2.80;;
47481;SDS011;33219;47.410;9.730;2022-10-28T03:43:57;7.25;;;2.22;;
47481;SDS011;33219;47.410;9.730;2022-10-28T03:46:25;7.00;;;2.52;;
47481;SDS011;33219;47.410;9.730;2022-10-28T03:48:52;7.35;;;2.85;;
47481;SDS011;33219;47.410;9.730;2022-10-28T03:51:20;4.47;;;1.98;;
47481;SDS011;33219;47.410;9.730;2022-10-28T03:53:47;11.78;;;2.58;;
47481;SDS011;33219;47.410;9.730;2022-10-28T03:56:15;5.55;;;2.25;;
47481;SDS011;33219;47.410;9.730;2022-10-28T03:58:43;6.05;;;2.08;;
47481;SDS011;33219;47.410;9.730;2022-10-28T04:01:15;6.62;;;2.45;;
47481;SDS011;33219;47.410;9.730;2022-10-28T04:03:43;6.40;;;2.10;;
47481;SDS011;33219;47.410;9.730;2022-10-28T04:06:10;6.00;;;2.45;;
47481;SDS011;33219;47.410;9.730;2022-10-28T04:08:39;5.00;;;2.45;;
47481;SDS011;33219;47.410;9.730;2022-10-28T04:11:06;5.22;;;2.55;;
47481;SDS011;33219;47.410;9.730;2022-10-28T04:13:34;4.30;;;2.70;;
47481;SDS011;33219;47.410;9.730;2022-10-28T04:16:01;7.55;;;2.50;;
47481;SDS011;33219;47.410;9.730;2022-10-28T04:18:29;6.30;;;2.20;;
47481;SDS011;33219;47.410;9.730;2022-10-28T04:20:57;8.40;;;2.60;;
47481;SDS011;33219;47.410;9.730;2022-10-28T04:23:24;5.15;;;2.40;;
47481;SDS011;33219;47.410;9.730;2022-10-28T04:25:52;6.85;;;2.52;;
47481;SDS011;33219;47.410;9.730;2022-10-28T04:28:20;4.45;;;2.40;;
47481;SDS011;33219;47.410;9.730;2022-10-28T04:30:51;6.17;;;2.83;;
47481;SDS011;33219;47.410;9.730;2022-10-28T04:33:19;7.20;;;2.47;;
47481;SDS011;33219;47.410;9.730;2022-10-28T04:35:46;5.15;;;2.80;;
47481;SDS011;33219;47.410;9.730;2022-10-28T04:38:14;8.00;;;2.95;;
47481;SDS011;33219;47.410;9.730;2022-10-28T04:40:41;8.00;;;2.75;;
47481;SDS011;33219;47.410;9.730;2022-10-28T04:43:09;5.83;;;2.92;;
47481;SDS011;33219;47.410;9.730;2022-10-28T04:45:37;7.30;;;3.30;;
47481;SDS011;33219;47.410;9.730;2022-10-28T04:48:04;8.48;;;3.67;;
47481;SDS011;33219;47.410;9.730;2022-10-28T04:50:32;8.45;;;3.12;;
47481;SDS011;33219;47.410;9.730;2022-10-28T04:53:00;4.97;;;2.90;;
47481;SDS011;33219;47.410;9.730;2022-10-28T04:55:27;6.60;;;3.00;;
47481;SDS011;33219;47.410;9.730;2022-10-28T04:57:56;6.72;;;2.62;;
47481;SDS011;33219;47.410;9.730;2022-10-28T05:00:26;7.00;;;2.37;;
47481;SDS011;33219;47.410;9.730;2022-10-28T05:02:55;5.08;;;2.60;;
47481;SDS011;33219;47.410;9.730;2022-10-28T05:05:22;8.88;;;3.02;;
47481;SDS011;33219;47.410;9.730;2022-10-28T05:07:50;7.85;;;2.77;;
47481;SDS011;33219;47.410;9.730;2022-10-28T05:10:18;6.95;;;2.80;;
47481;SDS011;33219;47.410;9.730;2022-10-28T05:12:45;6.62;;;2.83;;
47481;SDS011;33219;47.410;9.730;2022-10-28T05:15:13;7.35;;;2.72;;
47481;SDS011;33219;47.410;9.730;2022-10-28T05:17:44;7.15;;;2.83;;
47481;SDS011;33219;47.410;9.730;2022-10-28T05:20:13;6.95;;;2.62;;
47481;SDS011;33219;47.410;9.730;2022-10-28T05:22:46;9.68;;;3.70;;
47481;SDS011;33219;47.410;9.730;2022-10-28T05:25:18;6.55;;;2.62;;
47481;SDS011;33219;47.410;9.730;2022-10-28T05:27:46;4.72;;;2.35;;
47481;SDS011;33219;47.410;9.730;2022-10-28T05:30:13;8.93;;;2.67;;
47481;SDS011;33219;47.410;9.730;2022-10-28T05:32:43;9.45;;;3.25;;
47481;SDS011;33219;47.410;9.730;2022-10-28T05:35:10;6.97;;;3.25;;
47481;SDS011;33219;47.410;9.730;2022-10-28T05:37:38;8.78;;;3.40;;
47481;SDS011;33219;47.410;9.730;2022-10-28T05:40:06;7.80;;;3.02;;
47481;SDS011;33219;47.410;9.730;2022-10-28T05:42:43;10.25;;;3.08;;
47481;SDS011;33219;47.410;9.730;2022-10-28T05:45:08;6.20;;;2.30;;
47481;SDS011;33219;47.410;9.730;2022-10-28T05:47:41;7.22;;;2.52;;
47481;SDS011;33219;47.410;9.730;2022-10-28T05:50:10;4.92;;;2.02;;
47481;SDS011;33219;47.410;9.730;2022-10-28T05:52:38;6.40;;;1.98;;
47481;SDS011;33219;47.410;9.730;2022-10-28T05:55:05;5.00;;;2.40;;
47481;SDS011;33219;47.410;9.730;2022-10-28T05:57:33;4.22;;;1.82;;
47481;SDS011;33219;47.410;9.730;2022-10-28T06:00:01;6.70;;;2.47;;
47481;SDS011;33219;47.410;9.730;2022-10-28T06:02:29;5.87;;;2.37;;
47481;SDS011;33219;47.410;9.730;2022-10-28T06:04:57;5.45;;;2.47;;
47481;SDS011;33219;47.410;9.730;2022-10-28T06:07:24;4.90;;;2.40;;
47481;SDS011;33219;47.410;9.730;2022-10-28T06:09:54;5.95;;;2.70;;
47481;SDS011;33219;47.410;9.730;2022-10-28T06:12:22;6.12;;;2.65;;
47481;SDS011;33219;47.410;9.730;2022-10-28T06:14:50;7.17;;;2.95;;
47481;SDS011;33219;47.410;9.730;2022-10-28T06:17:17;5.15;;;2.00;;
47481;SDS011;33219;47.410;9.730;2022-10-28T06:19:45;5.92;;;2.30;;
47481;SDS011;33219;47.410;9.730;2022-10-28T06:22:13;8.70;;;3.05;;
47481;SDS011;33219;47.410;9.730;2022-10-28T06:24:40;5.97;;;3.17;;
47481;SDS011;33219;47.410;9.730;2022-10-28T06:27:08;10.05;;;3.10;;
47481;SDS011;33219;47.410;9.730;2022-10-28T06:29:35;5.65;;;2.72;;
47481;SDS011;33219;47.410;9.730;2022-10-28T06:32:03;13.28;;;3.00;;
47481;SDS011;33219;47.410;9.730;2022-10-28T06:34:31;8.80;;;3.10;;
47481;SDS011;33219;47.410;9.730;2022-10-28T06:36:58;9.28;;;3.10;;
47481;SDS011;33219;47.410;9.730;2022-10-28T06:39:26;6.80;;;2.87;;
47481;SDS011;33219;47.410;9.730;2022-10-28T06:41:54;9.93;;;3.30;;
47481;SDS011;33219;47.410;9.730;2022-10-28T06:44:21;10.50;;;3.22;;
47481;SDS011;33219;47.410;9.730;2022-10-28T06:46:49;9.35;;;3.20;;
47481;SDS011;33219;47.410;9.730;2022-10-28T06:49:16;8.18;;;3.47;;
47481;SDS011;33219;47.410;9.730;2022-10-28T06:51:44;7.10;;;3.30;;
47481;SDS011;33219;47.410;9.730;2022-10-28T06:54:11;7.35;;;3.58;;
47481;SDS011;33219;47.410;9.730;2022-10-28T06:56:39;7.05;;;3.00;;
47481;SDS011;33219;47.410;9.730;2022-10-28T06:59:08;7.85;;;3.90;;
47481;SDS011;33219;47.410;9.730;2022-10-28T07:01:36;5.12;;;3.20;;
47481;SDS011;33219;47.410;9.730;2022-10-28T07:04:03;6.70;;;2.80;;
47481;SDS011;33219;47.410;9.730;2022-10-28T07:06:32;8.60;;;3.20;;
47481;SDS011;33219;47.410;9.730;2022-10-28T07:08:59;9.90;;;3.47;;
47481;SDS011;33219;47.410;9.730;2022-10-28T07:11:27;15.00;;;4.80;;
47481;SDS011;33219;47.410;9.730;2022-10-28T07:13:54;11.70;;;3.90;;
47481;SDS011;33219;47.410;9.730;2022-10-28T07:16:22;8.50;;;4.05;;
47481;SDS011;33219;47.410;9.730;2022-10-28T07:18:50;11.03;;;4.33;;
47481;SDS011;33219;47.410;9.730;2022-10-28T07:21:18;10.40;;;4.17;;
47481;SDS011;33219;47.410;9.730;2022-10-28T07:23:47;8.93;;;4.08;;
47481;SDS011;33219;47.410;9.730;2022-10-28T07:26:14;11.38;;;4.72;;
47481;SDS011;33219;47.410;9.730;2022-10-28T07:28:42;6.33;;;2.90;;
47481;SDS011;33219;47.410;9.730;2022-10-28T07:31:09;7.30;;;2.80;;
47481;SDS011;33219;47.410;9.730;2022-10-28T07:33:37;8.73;;;3.60;;
47481;SDS011;33219;47.410;9.730;2022-10-28T07:36:05;6.25;;;3.95;;
47481;SDS011;33219;47.410;9.730;2022-10-28T07:38:33;9.10;;;4.20;;
47481;SDS011;33219;47.410;9.730;2022-10-28T07:41:04;9.25;;;3.92;;
47481;SDS011;33219;47.410;9.730;2022-10-28T07:43:34;8.90;;;3.60;;
47481;SDS011;33219;47.410;9.730;2022-10-28T07:46:03;12.30;;;4.00;;
47481;SDS011;33219;47.410;9.730;2022-10-28T07:48:32;9.58;;;4.65;;
47481;SDS011;33219;47.410;9.730;2022-10-28T07:51:00;11.68;;;5.15;;
47481;SDS011;33219;47.410;9.730;2022-10-28T07:53:29;10.25;;;5.25;;
47481;SDS011;33219;47.410;9.730;2022-10-28T07:55:58;12.63;;;4.95;;
47481;SDS011;33219;47.410;9.730;2022-10-28T07:58:28;14.35;;;4.80;;
47481;SDS011;33219;47.410;9.730;2022-10-28T08:00:55;10.43;;;4.12;;
47481;SDS011;33219;47.410;9.730;2022-10-28T08:03:25;11.45;;;4.62;;
47481;SDS011;33219;47.410;9.730;2022-10-28T08:05:58;11.05;;;5.10;;
47481;SDS011;33219;47.410;9.730;2022-10-28T08:08:27;8.68;;;4.60;;
47481;SDS011;33219;47.410;9.730;2022-10-28T08:10:55;12.43;;;5.45;;
47481;SDS011;33219;47.410;9.730;2022-10-28T08:13:23;7.80;;;4.03;;
47481;SDS011;33219;47.410;9.730;2022-10-28T08:15:51;10.10;;;4.28;;
47481;SDS011;33219;47.410;9.730;2022-10-28T08:18:20;7.45;;;3.40;;
47481;SDS011;33219;47.410;9.730;2022-10-28T08:20:48;10.03;;;3.17;;
47481;SDS011;33219;47.410;9.730;2022-10-28T08:23:15;7.22;;;3.47;;
47481;SDS011;33219;47.410;9.730;2022-10-28T08:25:51;10.95;;;4.15;;
47481;SDS011;33219;47.410;9.730;2022-10-28T08:28:16;11.10;;;4.35;;
47481;SDS011;33219;47.410;9.730;2022-10-28T08:30:44;9.93;;;4.10;;
47481;SDS011;33219;47.410;9.730;2022-10-28T08:33:12;7.75;;;3.77;;
47481;SDS011;33219;47.410;9.730;2022-10-28T08:35:40;8.90;;;4.25;;
47481;SDS011;33219;47.410;9.730;2022-10-28T08:38:08;11.90;;;4.17;;
47481;SDS011;33219;47.410;9.730;2022-10-28T08:40:42;16.90;;;4.30;;
47481;SDS011;33219;47.410;9.730;2022-10-28T08:43:16;8.18;;;4.33;;
47481;SDS011;33219;47.410;9.730;2022-10-28T08:48:29;7.83;;;3.90;;
47481;SDS011;33219;47.410;9.730;2022-10-28T08:51:00;9.13;;;4.05;;
47481;SDS011;33219;47.410;9.730;2022-10-28T08:53:36;10.10;;;4.58;;
47481;SDS011;33219;47.410;9.730;2022-10-28T08:56:09;9.50;;;3.92;;
47481;SDS011;33219;47.410;9.730;2022-10-28T08:58:33;8.20;;;4.17;;
47481;SDS011;33219;47.410;9.730;2022-10-28T09:01:03;9.25;;;3.70;;
47481;SDS011;33219;47.410;9.730;2022-10-28T09:03:35;8.13;;;3.90;;
47481;SDS011;33219;47.410;9.730;2022-10-28T09:06:09;10.35;;;3.70;;
47481;SDS011;33219;47.410;9.730;2022-10-28T09:08:44;7.55;;;3.58;;
47481;SDS011;33219;47.410;9.730;2022-10-28T09:14:02;10.23;;;3.50;;
47481;SDS011;33219;47.410;9.730;2022-10-28T09:16:47;9.43;;;3.58;;
47481;SDS011;33219;47.410;9.730;2022-10-28T09:24:38;9.73;;;3.80;;
47481;SDS011;33219;47.410;9.730;2022-10-28T09:35:10;6.40;;;3.92;;
47481;SDS011;33219;47.410;9.730;2022-10-28T09:37:42;7.80;;;4.08;;
47481;SDS011;33219;47.410;9.730;2022-10-28T09:40:19;8.88;;;4.15;;
47481;SDS011;33219;47.410;9.730;2022-10-28T09:43:03;8.23;;;3.60;;
47481;SDS011;33219;47.410;9.730;2022-10-28T09:45:34;10.75;;;3.75;;
47481;SDS011;33219;47.410;9.730;2022-10-28T09:48:17;7.28;;;3.60;;
47481;SDS011;33219;47.410;9.730;2022-10-28T09:50:48;10.28;;;3.70;;
47481;SDS011;33219;47.410;9.730;2022-10-28T09:56:07;11.75;;;4.00;;
47481;SDS011;33219;47.410;9.730;2022-10-28T09:58:35;8.45;;;3.80;;
47481;SDS011;33219;47.410;9.730;2022-10-28T10:01:05;9.35;;;3.75;;
47481;SDS011;33219;47.410;9.730;2022-10-28T10:03:34;13.00;;;4.12;;
47481;SDS011;33219;47.410;9.730;2022-10-28T10:06:07;8.83;;;3.80;;
47481;SDS011;33219;47.410;9.730;2022-10-28T10:08:39;9.70;;;3.85;;
47481;SDS011;33219;47.410;9.730;2022-10-28T10:11:21;10.80;;;4.15;;
47481;SDS011;33219;47.410;9.730;2022-10-28T10:13:49;10.20;;;4.50;;
47481;SDS011;33219;47.410;9.730;2022-10-28T10:16:29;9.28;;;4.20;;
47481;SDS011;33219;47.410;9.730;2022-10-28T10:19:02;8.15;;;3.70;;
47481;SDS011;33219;47.410;9.730;2022-10-28T10:21:49;9.18;;;4.00;;
47481;SDS011;33219;47.410;9.730;2022-10-28T10:24:25;7.67;;;3.40;;
47481;SDS011;33219;47.410;9.730;2022-10-28T10:26:58;10.15;;;4.12;;
47481;SDS011;33219;47.410;9.730;2022-10-28T10:29:27;7.17;;;3.20;;
47481;SDS011;33219;47.410;9.730;2022-10-28T10:32:19;7.58;;;3.95;;
47481;SDS011;33219;47.410;9.730;2022-10-28T10:34:50;7.85;;;4.33;;
47481;SDS011;33219;47.410;9.730;2022-10-28T10:37:23;8.93;;;4.80;;
47481;SDS011;33219;47.410;9.730;2022-10-28T10:40:26;9.83;;;4.92;;
47481;SDS011;33219;47.410;9.730;2022-10-28T10:42:27;10.13;;;4.87;;
47481;SDS011;33219;47.410;9.730;2022-10-28T10:45:14;10.70;;;4.90;;
47481;SDS011;33219;47.410;9.730;2022-10-28T10:47:43;12.47;;;5.72;;
47481;SDS011;33219;47.410;9.730;2022-10-28T10:50:26;9.83;;;5.83;;
47481;SDS011;33219;47.410;9.730;2022-10-28T10:52:57;11.08;;;5.03;;
47481;SDS011;33219;47.410;9.730;2022-10-28T10:55:33;12.33;;;5.28;;
47481;SDS011;33219;47.410;9.730;2022-10-28T10:58:05;11.33;;;4.95;;
47481;SDS011;33219;47.410;9.730;2022-10-28T11:00:36;10.50;;;5.30;;
47481;SDS011;33219;47.410;9.730;2022-10-28T11:03:06;10.43;;;4.50;;
47481;SDS011;33219;47.410;9.730;2022-10-28T11:05:36;8.35;;;4.58;;
47481;SDS011;33219;47.410;9.730;2022-10-28T11:08:07;8.68;;;4.30;;
47481;SDS011;33219;47.410;9.730;2022-10-28T11:10:36;10.20;;;4.28;;
47481;SDS011;33219;47.410;9.730;2022-10-28T11:13:07;7.15;;;2.95;;
47481;SDS011;33219;47.410;9.730;2022-10-28T11:15:46;8.45;;;3.02;;
47481;SDS011;33219;47.410;9.730;2022-10-28T11:18:17;6.30;;;3.10;;
47481;SDS011;33219;47.410;9.730;2022-10-28T11:20:50;4.42;;;2.40;;
47481;SDS011;33219;47.410;9.730;2022-10-28T11:26:08;8.35;;;2.80;;
47481;SDS011;33219;47.410;9.730;2022-10-28T11:31:31;9.20;;;2.90;;
47481;SDS011;33219;47.410;9.730;2022-10-28T11:39:48;7.87;;;2.90;;
47481;SDS011;33219;47.410;9.730;2022-10-28T11:58:46;12.68;;;6.67;;
47481;SDS011;33219;47.410;9.730;2022-10-28T12:05:20;10.10;;;6.58;;
47481;SDS011;33219;47.410;9.730;2022-10-28T12:07:20;12.60;;;7.40;;
47481;SDS011;33219;47.410;9.730;2022-10-28T12:12:31;12.23;;;6.47;;
47481;SDS011;33219;47.410;9.730;2022-10-28T12:15:17;14.83;;;6.83;;
47481;SDS011;33219;47.410;9.730;2022-10-28T12:20:32;11.33;;;6.58;;
47481;SDS011;33219;47.410;9.730;2022-10-28T12:23:02;12.60;;;6.33;;
47481;SDS011;33219;47.410;9.730;2022-10-28T12:25:33;11.73;;;6.65;;
47481;SDS011;33219;47.410;9.730;2022-10-28T12:28:06;15.78;;;7.40;;
47481;SDS011;33219;47.410;9.730;2022-10-28T12:30:35;14.07;;;7.53;;
47481;SDS011;33219;47.410;9.730;2022-10-28T12:33:12;10.93;;;6.95;;
47481;SDS011;33219;47.410;9.730;2022-10-28T12:35:40;10.18;;;7.15;;
47481;SDS011;33219;47.410;9.730;2022-10-28T12:38:24;13.85;;;7.58;;
47481;SDS011;33219;47.410;9.730;2022-10-28T12:40:58;12.55;;;7.00;;
47481;SDS011;33219;47.410;9.730;2022-10-28T12:43:28;13.50;;;7.40;;
47481;SDS011;33219;47.410;9.730;2022-10-28T12:45:59;9.63;;;6.42;;
47481;SDS011;33219;47.410;9.730;2022-10-28T12:48:29;12.20;;;7.00;;
47481;SDS011;33219;47.410;9.730;2022-10-28T12:51:02;10.75;;;6.60;;
47481;SDS011;33219;47.410;9.730;2022-10-28T12:53:35;9.73;;;6.92;;
47481;SDS011;33219;47.410;9.730;2022-10-28T12:56:17;12.63;;;7.10;;
47481;SDS011;33219;47.410;9.730;2022-10-28T12:59:28;12.68;;;6.67;;
47481;SDS011;33219;47.410;9.730;2022-10-28T13:01:15;9.58;;;5.75;;
47481;SDS011;33219;47.410;9.730;2022-10-28T13:03:44;10.90;;;6.75;;
47481;SDS011;33219;47.410;9.730;2022-10-28T13:11:40;11.63;;;6.28;;
47481;SDS011;33219;47.410;9.730;2022-10-28T13:14:24;10.38;;;6.03;;
47481;SDS011;33219;47.410;9.730;2022-10-28T13:17:22;11.57;;;5.87;;
47481;SDS011;33219;47.410;9.730;2022-10-28T13:20:45;11.75;;;6.25;;
47481;SDS011;33219;47.410;9.730;2022-10-28T13:26:14;8.78;;;5.35;;
47481;SDS011;33219;47.410;9.730;2022-10-28T13:28:44;8.85;;;5.87;;
47481;SDS011;33219;47.410;9.730;2022-10-28T13:31:13;9.78;;;5.25;;
47481;SDS011;33219;47.410;9.730;2022-10-28T13:33:50;10.48;;;5.15;;
47481;SDS011;33219;47.410;9.730;2022-10-28T13:36:27;9.13;;;4.83;;
47481;SDS011;33219;47.410;9.730;2022-10-28T13:39:00;10.30;;;4.95;;
47481;SDS011;33219;47.410;9.730;2022-10-28T13:41:32;12.37;;;5.05;;
47481;SDS011;33219;47.410;9.730;2022-10-28T13:49:27;8.28;;;4.28;;
47481;SDS011;33219;47.410;9.730;2022-10-28T13:52:02;6.58;;;4.47;;
47481;SDS011;33219;47.410;9.730;2022-10-28T13:57:24;8.75;;;4.70;;
47481;SDS011;33219;47.410;9.730;2022-10-28T14:00:10;9.10;;;5.30;;
47481;SDS011;33219;47.410;9.730;2022-10-28T14:02:36;8.48;;;4.50;;
47481;SDS011;33219;47.410;9.730;2022-10-28T14:05:05;8.80;;;4.25;;
47481;SDS011;33219;47.410;9.730;2022-10-28T14:07:48;12.53;;;4.50;;
47481;SDS011;33219;47.410;9.730;2022-10-28T14:12:54;6.95;;;3.92;;
47481;SDS011;33219;47.410;9.730;2022-10-28T14:18:18;9.33;;;4.85;;
47481;SDS011;33219;47.410;9.730;2022-10-28T14:20:37;10.68;;;5.20;;
47481;SDS011;33219;47.410;9.730;2022-10-28T14:41:50;12.40;;;7.28;;
47481;SDS011;33219;47.410;9.730;2022-10-28T14:49:37;12.73;;;6.60;;
47481;SDS011;33219;47.410;9.730;2022-10-28T14:52:11;9.78;;;5.95;;
47481;SDS011;33219;47.410;9.730;2022-10-28T14:55:00;15.30;;;6.90;;
47481;SDS011;33219;47.410;9.730;2022-10-28T14:57:17;12.15;;;6.58;;
47481;SDS011;33219;47.410;9.730;2022-10-28T14:59:46;12.15;;;6.37;;
47481;SDS011;33219;47.410;9.730;2022-10-28T15:02:26;12.55;;;6.33;;
47481;SDS011;33219;47.410;9.730;2022-10-28T15:05:01;12.50;;;7.12;;
47481;SDS011;33219;47.410;9.730;2022-10-28T15:07:26;12.35;;;6.55;;
47481;SDS011;33219;47.410;9.730;2022-10-28T15:09:54;13.98;;;6.00;;
47481;SDS011;33219;47.410;9.730;2022-10-28T15:12:23;13.15;;;6.42;;
47481;SDS011;33219;47.410;9.730;2022-10-28T15:14:53;12.23;;;5.97;;
47481;SDS011;33219;47.410;9.730;2022-10-28T15:17:23;14.55;;;6.70;;
47481;SDS011;33219;47.410;9.730;2022-10-28T15:19:54;15.98;;;6.72;;
47481;SDS011;33219;47.410;9.730;2022-10-28T15:22:24;12.10;;;6.42;;
47481;SDS011;33219;47.410;9.730;2022-10-28T15:25:02;14.65;;;6.70;;
47481;SDS011;33219;47.410;9.730;2022-10-28T15:27:32;15.58;;;6.75;;
47481;SDS011;33219;47.410;9.730;2022-10-28T15:30:03;15.58;;;6.70;;
47481;SDS011;33219;47.410;9.730;2022-10-28T15:32:33;15.50;;;6.75;;
47481;SDS011;33219;47.410;9.730;2022-10-28T15:38:01;15.05;;;7.08;;
47481;SDS011;33219;47.410;9.730;2022-10-28T15:40:31;12.37;;;7.60;;
47481;SDS011;33219;47.410;9.730;2022-10-28T15:43:01;15.32;;;7.37;;
47481;SDS011;33219;47.410;9.730;2022-10-28T15:45:34;13.45;;;7.80;;
47481;SDS011;33219;47.410;9.730;2022-10-28T15:48:08;18.37;;;8.28;;
47481;SDS011;33219;47.410;9.730;2022-10-28T15:50:33;17.02;;;8.38;;
47481;SDS011;33219;47.410;9.730;2022-10-28T15:55:50;12.65;;;7.50;;
47481;SDS011;33219;47.410;9.730;2022-10-28T16:01:00;15.83;;;8.08;;
47481;SDS011;33219;47.410;9.730;2022-10-28T16:06:19;13.35;;;8.83;;
47481;SDS011;33219;47.410;9.730;2022-10-28T16:09:18;15.05;;;9.23;;
47481;SDS011;33219;47.410;9.730;2022-10-28T16:11:43;12.55;;;8.60;;
47481;SDS011;33219;47.410;9.730;2022-10-28T16:14:58;17.30;;;9.45;;
47481;SDS011;33219;47.410;9.730;2022-10-28T16:16:51;17.77;;;9.70;;
47481;SDS011;33219;47.410;9.730;2022-10-28T16:19:29;16.77;;;9.60;;
47481;SDS011;33219;47.410;9.730;2022-10-28T16:21:59;19.82;;;10.18;;
47481;SDS011;33219;47.410;9.730;2022-10-28T16:24:26;16.12;;;10.78;;
47481;SDS011;33219;47.410;9.730;2022-10-28T16:27:07;17.80;;;10.15;;
47481;SDS011;33219;47.410;9.730;2022-10-28T16:29:39;17.62;;;10.70;;
47481;SDS011;33219;47.410;9.730;2022-10-28T16:32:09;16.42;;;9.63;;
47481;SDS011;33219;47.410;9.730;2022-10-28T16:34:37;13.98;;;9.45;;
47481;SDS011;33219;47.410;9.730;2022-10-28T16:37:38;15.95;;;9.63;;
47481;SDS011;33219;47.410;9.730;2022-10-28T16:42:14;15.05;;;10.48;;
47481;SDS011;33219;47.410;9.730;2022-10-28T16:44:42;18.00;;;9.88;;
47481;SDS011;33219;47.410;9.730;2022-10-28T16:47:11;20.10;;;10.13;;
47481;SDS011;33219;47.410;9.730;2022-10-28T16:49:42;21.75;;;10.20;;
47481;SDS011;33219;47.410;9.730;2022-10-28T16:52:17;14.10;;;9.33;;
47481;SDS011;33219;47.410;9.730;2022-10-28T16:54:45;17.32;;;8.60;;
47481;SDS011;33219;47.410;9.730;2022-10-28T16:57:13;18.57;;;8.83;;
47481;SDS011;33219;47.410;9.730;2022-10-28T16:59:42;12.73;;;6.95;;
47481;SDS011;33219;47.410;9.730;2022-10-28T17:02:23;15.25;;;7.10;;
47481;SDS011;33219;47.410;9.730;2022-10-28T17:04:55;12.47;;;4.80;;
47481;SDS011;33219;47.410;9.730;2022-10-28T17:07:23;8.85;;;4.20;;
47481;SDS011;33219;47.410;9.730;2022-10-28T17:09:51;14.75;;;4.10;;
47481;SDS011;33219;47.410;9.730;2022-10-28T17:12:20;13.55;;;3.60;;
47481;SDS011;33219;47.410;9.730;2022-10-28T17:14:50;13.05;;;4.37;;
47481;SDS011;33219;47.410;9.730;2022-10-28T17:17:18;13.70;;;3.75;;
47481;SDS011;33219;47.410;9.730;2022-10-28T17:19:46;15.95;;;4.70;;
47481;SDS011;33219;47.410;9.730;2022-10-28T17:22:13;11.88;;;3.40;;
47481;SDS011;33219;47.410;9.730;2022-10-28T17:24:41;10.70;;;3.33;;
47481;SDS011;33219;47.410;9.730;2022-10-28T17:27:08;12.78;;;3.50;;
47481;SDS011;33219;47.410;9.730;2022-10-28T17:29:37;25.43;;;8.38;;
47481;SDS011;33219;47.410;9.730;2022-10-28T17:32:05;20.65;;;8.43;;
47481;SDS011;33219;47.410;9.730;2022-10-28T17:34:36;16.67;;;7.00;;
47481;SDS011;33219;47.410;9.730;2022-10-28T17:37:03;12.40;;;5.87;;